createdAt,value
2018-05-12T00:01:36.538Z,55.90
2018-05-12T00:04:04.119Z,56.30
2018-05-12T00:06:31.570Z,56.20
2018-05-12T00:08:59.039Z,56.50
2018-05-12T00:11:26.725Z,56.60
2018-05-12T00:13:54.221Z,56.30
2018-05-12T00:16:21.665Z,56.30
2018-05-12T00:18:49.475Z,56.50
2018-05-12T00:21:17.013Z,56.60
2018-05-12T00:23:44.585Z,56.60
2018-05-12T00:26:12.057Z,56.70
2018-05-12T00:28:39.614Z,56.80
2018-05-12T00:31:07.119Z,56.80
2018-05-12T00:33:34.610Z,56.70
2018-05-12T00:36:02.086Z,57.10
2018-05-12T00:38:29.746Z,57.10
2018-05-12T00:40:57.207Z,57.20
2018-05-12T00:43:24.656Z,57.20
2018-05-12T00:45:52.308Z,57.30
2018-05-12T00:48:19.772Z,57.60
2018-05-12T00:50:47.428Z,57.80
2018-05-12T00:53:14.893Z,57.80
2018-05-12T00:55:42.537Z,57.90
2018-05-12T00:58:10.008Z,58.00
2018-05-12T01:00:37.464Z,58.20
2018-05-12T01:03:05.112Z,58.30
2018-05-12T01:05:32.555Z,58.30
2018-05-12T01:08:00.104Z,58.40
2018-05-12T01:10:27.704Z,58.50
2018-05-12T01:12:55.349Z,58.60
2018-05-12T01:15:23.024Z,58.60
2018-05-12T01:17:50.687Z,58.80
2018-05-12T01:20:18.188Z,58.90
2018-05-12T01:22:45.788Z,58.80
2018-05-12T01:25:13.334Z,58.80
2018-05-12T01:27:40.764Z,58.80
2018-05-12T01:30:08.312Z,59.30
2018-05-12T01:32:36.517Z,59.40
2018-05-12T01:35:03.957Z,59.40
2018-05-12T01:37:31.412Z,59.60
2018-05-12T01:39:59.008Z,59.70
2018-05-12T01:42:26.453Z,60.00
2018-05-12T01:44:53.907Z,60.00
2018-05-12T01:47:21.384Z,60.20
2018-05-12T01:49:48.841Z,60.30
2018-05-12T01:52:16.305Z,60.50
2018-05-12T01:54:43.747Z,60.70
2018-05-12T01:57:11.189Z,60.70
2018-05-12T01:59:38.724Z,60.60
2018-05-12T02:02:06.199Z,60.50
2018-05-12T02:04:33.683Z,60.70
2018-05-12T02:07:01.096Z,61.00
2018-05-12T02:09:28.671Z,61.20
2018-05-12T02:11:56.216Z,61.30
2018-05-12T02:14:23.664Z,62.20
2018-05-12T02:16:51.119Z,61.60
2018-05-12T02:19:18.736Z,61.80
2018-05-12T02:21:47.679Z,62.40
2018-05-12T02:24:15.265Z,62.30
2018-05-12T02:26:42.814Z,62.50
2018-05-12T02:29:10.458Z,62.60
2018-05-12T02:31:37.920Z,62.80
2018-05-12T02:34:05.403Z,63.50
2018-05-12T02:36:32.865Z,62.60
2018-05-12T02:39:00.421Z,62.90
2018-05-12T02:41:27.880Z,63.20
2018-05-12T02:43:56.953Z,63.50
2018-05-12T02:46:24.498Z,63.50
2018-05-12T02:48:52.047Z,63.50
2018-05-12T02:51:19.501Z,63.60
2018-05-12T02:53:46.942Z,63.90
2018-05-12T02:56:14.420Z,64.10
2018-05-12T02:58:42.113Z,64.30
2018-05-12T03:01:09.763Z,64.30
2018-05-12T03:03:37.301Z,64.30
2018-05-12T03:06:04.759Z,64.20
2018-05-12T03:08:32.286Z,64.20
2018-05-12T03:11:00.515Z,64.30
2018-05-12T03:13:27.971Z,64.30
2018-05-12T03:15:55.541Z,64.20
2018-05-12T03:18:23.015Z,64.20
2018-05-12T03:20:50.463Z,64.20
2018-05-12T03:23:18.925Z,64.50
2018-05-12T03:25:46.365Z,64.40
2018-05-12T03:28:13.818Z,64.60
2018-05-12T03:30:41.270Z,64.40
2018-05-12T03:33:08.837Z,64.50
2018-05-12T03:35:36.348Z,64.50
2018-05-12T03:38:04.647Z,64.50
2018-05-12T03:40:32.221Z,64.50
2018-05-12T03:42:59.792Z,64.80
2018-05-12T03:45:27.471Z,64.80
2018-05-12T03:47:54.989Z,64.70
2018-05-12T03:50:22.585Z,64.60
2018-05-12T03:52:50.130Z,64.70
2018-05-12T03:55:17.723Z,64.60
2018-05-12T03:57:45.178Z,64.60
2018-05-12T04:00:12.639Z,64.80
2018-05-12T04:02:40.258Z,64.90
2018-05-12T04:05:19.815Z,65.00
2018-05-12T04:07:59.115Z,65.00
2018-05-12T04:10:40.317Z,64.90
2018-05-12T04:13:07.891Z,65.00
2018-05-12T04:15:35.447Z,64.80
2018-05-12T04:18:02.897Z,64.60
2018-05-12T04:20:30.350Z,64.70
2018-05-12T04:22:58.014Z,64.90
2018-05-12T04:25:25.545Z,65.00
2018-05-12T04:27:53.012Z,65.00
2018-05-12T04:30:20.586Z,65.10
2018-05-12T04:32:48.051Z,65.10
2018-05-12T04:35:17.026Z,65.00
2018-05-12T04:37:44.603Z,64.90
2018-05-12T04:40:12.124Z,64.70
2018-05-12T04:42:39.712Z,64.90
2018-05-12T04:45:07.166Z,64.90
2018-05-12T04:47:34.614Z,65.00
2018-05-12T04:50:02.074Z,64.90
2018-05-12T04:52:29.742Z,65.00
2018-05-12T04:54:57.395Z,65.20
2018-05-12T04:57:25.050Z,65.10
2018-05-12T04:59:52.533Z,65.00
2018-05-12T05:02:20.053Z,65.00
2018-05-12T05:04:47.751Z,65.00
2018-05-12T05:07:15.215Z,65.10
2018-05-12T05:09:42.759Z,65.00
2018-05-12T05:12:10.210Z,65.70
2018-05-12T05:14:37.856Z,65.10
2018-05-12T05:17:05.337Z,64.90
2018-05-12T05:19:32.993Z,64.90
2018-05-12T05:22:00.471Z,65.20
2018-05-12T05:24:28.107Z,64.80
2018-05-12T05:26:55.566Z,64.50
2018-05-12T05:29:23.017Z,64.50
2018-05-12T05:31:50.684Z,64.40
2018-05-12T05:34:18.143Z,64.50
2018-05-12T05:36:45.585Z,64.00
2018-05-12T05:39:13.253Z,63.70
2018-05-12T05:41:40.767Z,63.40
2018-05-12T05:44:08.239Z,62.70
2018-05-12T05:46:35.812Z,62.50
2018-05-12T05:49:03.481Z,62.00
2018-05-12T05:51:31.129Z,62.20
2018-05-12T05:53:58.797Z,62.20
2018-05-12T05:56:26.461Z,61.90
2018-05-12T05:58:54.130Z,61.30
2018-05-12T06:01:21.794Z,61.20
2018-05-12T06:03:49.446Z,61.80
2018-05-12T06:06:16.910Z,62.00
2018-05-12T06:08:44.372Z,61.40
2018-05-12T06:11:12.598Z,59.70
2018-05-12T06:13:40.040Z,59.70
2018-05-12T06:16:07.575Z,60.20
2018-05-12T06:18:35.036Z,60.00
2018-05-12T06:21:02.542Z,59.90
2018-05-12T06:23:29.988Z,59.90
2018-05-12T06:25:57.424Z,59.70
2018-05-12T06:28:24.963Z,59.80
2018-05-12T06:30:53.198Z,59.20
2018-05-12T06:33:20.764Z,59.80
2018-05-12T06:35:48.423Z,59.10
2018-05-12T06:38:15.867Z,58.40
2018-05-12T06:40:43.352Z,58.00
2018-05-12T06:43:11.010Z,58.10
2018-05-12T06:45:40.124Z,58.50
2018-05-12T06:48:07.762Z,58.40
2018-05-12T06:50:35.277Z,58.00
2018-05-12T06:53:02.739Z,57.80
2018-05-12T06:55:30.327Z,57.90
2018-05-12T06:57:57.863Z,58.10
2018-05-12T07:00:25.392Z,58.70
2018-05-12T07:02:52.836Z,58.80
2018-05-12T07:05:21.057Z,59.00
2018-05-12T07:07:48.506Z,59.00
2018-05-12T07:10:16.043Z,58.90
2018-05-12T07:12:44.210Z,59.50
2018-05-12T07:15:11.830Z,59.20
2018-05-12T07:17:39.276Z,57.90
2018-05-12T07:20:07.119Z,58.70
2018-05-12T07:22:34.575Z,58.30
2018-05-12T07:25:02.054Z,57.50
2018-05-12T07:27:29.716Z,57.90
2018-05-12T07:29:57.375Z,59.10
2018-05-12T07:32:24.812Z,58.90
2018-05-12T07:34:52.256Z,58.90
2018-05-12T07:37:19.708Z,58.50
2018-05-12T07:39:47.167Z,59.10
2018-05-12T07:42:14.639Z,58.70
2018-05-12T07:44:42.286Z,59.20
2018-05-12T07:47:09.767Z,57.30
2018-05-12T07:49:37.289Z,57.20
2018-05-12T07:52:04.885Z,57.40
2018-05-12T07:54:32.333Z,56.80
2018-05-12T07:57:00.085Z,57.20
2018-05-12T07:59:27.466Z,56.60
2018-05-12T08:01:54.973Z,55.80
2018-05-12T08:04:22.575Z,56.40
2018-05-12T08:06:51.553Z,56.20
2018-05-12T08:09:19.067Z,56.20
2018-05-12T08:11:46.602Z,55.70
2018-05-12T08:14:14.067Z,54.80
2018-05-12T08:16:41.710Z,54.70
2018-05-12T08:19:10.767Z,54.00
2018-05-12T08:21:38.275Z,54.00
2018-05-12T08:24:05.724Z,54.00
2018-05-12T08:26:33.177Z,53.80
2018-05-12T08:29:00.628Z,53.90
2018-05-12T08:31:29.611Z,53.40
2018-05-12T08:33:57.026Z,53.40
2018-05-12T08:36:24.472Z,51.80
2018-05-12T08:38:52.042Z,50.20
2018-05-12T08:41:19.510Z,51.10
2018-05-12T08:43:47.184Z,51.10
2018-05-12T08:46:14.836Z,50.90
2018-05-12T08:48:42.301Z,50.30
2018-05-12T08:51:09.859Z,51.00
2018-05-12T08:53:37.305Z,48.80
2018-05-12T08:56:04.876Z,47.10
2018-05-12T08:58:32.535Z,46.80
2018-05-12T09:00:59.992Z,47.20
2018-05-12T09:03:27.440Z,46.70
2018-05-12T09:05:54.926Z,47.20
2018-05-12T09:08:22.440Z,47.00
2018-05-12T09:10:50.024Z,47.80
2018-05-12T09:13:17.484Z,48.90
2018-05-12T09:15:45.090Z,45.90
2018-05-12T09:18:13.308Z,43.40
2018-05-12T09:20:40.881Z,43.50
2018-05-12T09:23:08.520Z,44.40
2018-05-12T09:25:36.009Z,44.70
2018-05-12T09:28:03.515Z,43.80
2018-05-12T09:30:31.044Z,44.90
2018-05-12T09:32:59.270Z,43.70
2018-05-12T09:35:26.833Z,43.60
2018-05-12T09:37:54.488Z,43.90
2018-05-12T09:40:22.021Z,43.50
2018-05-12T09:42:49.477Z,42.80
2018-05-12T09:45:17.089Z,42.50
2018-05-12T09:47:45.128Z,43.20
2018-05-12T09:50:12.704Z,43.60
2018-05-12T09:52:40.192Z,41.40
2018-05-12T09:55:08.524Z,40.30
2018-05-12T09:57:35.989Z,40.30
2018-05-12T10:00:03.434Z,41.90
2018-05-12T10:02:31.138Z,42.20
2018-05-12T10:04:58.753Z,39.60
2018-05-12T10:07:26.244Z,40.50
2018-05-12T10:09:53.736Z,38.50
2018-05-12T10:12:21.186Z,38.90
2018-05-12T10:14:48.647Z,39.60
2018-05-12T10:17:16.076Z,38.60
2018-05-12T10:19:43.520Z,38.20
2018-05-12T10:22:12.585Z,39.60
2018-05-12T10:24:41.557Z,40.30
2018-05-12T10:27:09.028Z,40.40
2018-05-12T10:29:37.847Z,40.00
2018-05-12T10:32:05.378Z,39.10
2018-05-12T10:34:32.816Z,39.30
2018-05-12T10:37:00.766Z,40.20
2018-05-12T10:39:28.224Z,38.90
2018-05-12T10:41:55.799Z,39.70
2018-05-12T10:44:23.376Z,40.10
2018-05-12T10:46:50.827Z,39.70
2018-05-12T10:49:18.280Z,39.10
2018-05-12T10:51:45.763Z,39.40
2018-05-12T10:54:13.284Z,39.40
2018-05-12T10:56:40.737Z,39.70
2018-05-12T10:59:08.326Z,40.60
2018-05-12T11:01:35.854Z,39.50
2018-05-12T11:04:03.300Z,40.00
2018-05-12T11:06:30.767Z,39.60
2018-05-12T11:08:58.545Z,40.20
2018-05-12T11:11:26.034Z,40.40
2018-05-12T11:13:53.679Z,40.10
2018-05-12T11:16:21.347Z,39.40
2018-05-12T11:18:48.863Z,39.00
2018-05-12T11:21:16.324Z,39.70
2018-05-12T11:23:43.780Z,37.90
2018-05-12T11:26:11.230Z,38.00
2018-05-12T11:28:38.843Z,38.10
2018-05-12T11:31:07.103Z,38.50
2018-05-12T11:33:34.953Z,38.50
2018-05-12T11:36:02.527Z,37.90
2018-05-12T11:38:30.011Z,37.90
2018-05-12T11:40:58.225Z,37.20
2018-05-12T11:43:25.678Z,37.30
2018-05-12T11:45:53.127Z,37.00
2018-05-12T11:48:20.667Z,37.60
2018-05-12T11:50:48.922Z,37.50
2018-05-12T11:53:17.440Z,38.30
2018-05-12T11:55:44.872Z,38.10
2018-05-12T11:58:13.185Z,37.50
2018-05-12T12:00:40.642Z,37.50
2018-05-12T12:03:08.115Z,37.60
2018-05-12T12:05:35.646Z,38.50
2018-05-12T12:08:03.101Z,37.70
2018-05-12T12:10:30.631Z,38.10
2018-05-12T12:12:58.978Z,37.60
2018-05-12T12:15:27.201Z,38.00
2018-05-12T12:17:54.653Z,38.00
2018-05-12T12:20:22.118Z,36.50
2018-05-12T12:22:49.685Z,36.10
2018-05-12T12:25:17.129Z,34.80
2018-05-12T12:27:44.575Z,36.00
2018-05-12T12:30:12.388Z,35.50
2018-05-12T12:32:39.898Z,35.80
2018-05-12T12:35:07.345Z,35.50
2018-05-12T12:37:34.854Z,35.80
2018-05-12T12:40:02.404Z,36.40
2018-05-12T12:42:29.866Z,35.00
2018-05-12T12:44:57.564Z,35.10
2018-05-12T12:47:25.050Z,35.10
2018-05-12T12:49:52.841Z,34.40
2018-05-12T12:52:20.306Z,34.70
2018-05-12T12:54:47.751Z,34.50
2018-05-12T12:57:15.213Z,35.70
2018-05-12T12:59:42.890Z,36.40
2018-05-12T13:02:10.418Z,34.70
2018-05-12T13:04:37.877Z,36.00
2018-05-12T13:07:05.326Z,35.70
2018-05-12T13:09:32.828Z,36.50
2018-05-12T13:12:01.044Z,36.60
2018-05-12T13:14:28.657Z,36.60
2018-05-12T13:16:56.155Z,37.00
2018-05-12T13:19:23.740Z,35.30
2018-05-12T13:21:51.227Z,37.00
2018-05-12T13:24:20.186Z,36.90
2018-05-12T13:26:47.628Z,36.90
2018-05-12T13:29:15.372Z,35.40
2018-05-12T13:31:44.378Z,35.70
2018-05-12T13:34:11.842Z,35.90
2018-05-12T13:36:39.420Z,36.00
2018-05-12T13:39:06.880Z,36.50
2018-05-12T13:41:34.336Z,35.50
2018-05-12T13:44:01.785Z,35.30
2018-05-12T13:46:29.266Z,35.70
2018-05-12T13:48:56.900Z,35.60
2018-05-12T13:51:24.444Z,35.60
2018-05-12T13:53:51.921Z,36.00
2018-05-12T13:56:20.944Z,37.00
2018-05-12T13:58:48.429Z,36.90
2018-05-12T14:01:16.042Z,36.70
2018-05-12T14:03:43.494Z,36.10
2018-05-12T14:06:11.015Z,37.30
2018-05-12T14:08:38.594Z,36.90
2018-05-12T14:11:06.044Z,36.70
2018-05-12T14:13:33.530Z,36.30
2018-05-12T14:16:01.269Z,36.90
2018-05-12T14:18:28.695Z,36.60
2018-05-12T14:20:56.325Z,36.90
2018-05-12T14:23:23.820Z,38.00
2018-05-12T14:25:51.434Z,37.60
2018-05-12T14:28:19.070Z,36.80
2018-05-12T14:30:47.051Z,37.00
2018-05-12T14:33:14.492Z,37.10
2018-05-12T14:35:42.260Z,38.00
2018-05-12T14:38:09.713Z,37.10
2018-05-12T14:40:37.196Z,36.90
2018-05-12T14:43:04.813Z,36.80
2018-05-12T14:45:32.282Z,37.30
2018-05-12T14:47:59.739Z,35.20
2018-05-12T14:50:27.204Z,35.60
2018-05-12T14:52:54.862Z,35.80
2018-05-12T14:55:22.415Z,35.80
2018-05-12T14:57:50.005Z,35.30
2018-05-12T15:00:18.231Z,35.70
2018-05-12T15:02:45.671Z,35.60
2018-05-12T15:05:13.857Z,35.50
2018-05-12T15:07:41.298Z,35.40
2018-05-12T15:10:08.876Z,35.50
2018-05-12T15:12:36.334Z,34.30
2018-05-12T15:15:03.778Z,34.80
2018-05-12T15:17:31.251Z,35.10
2018-05-12T15:19:58.914Z,35.80
2018-05-12T15:22:26.445Z,35.70
2018-05-12T15:24:53.922Z,33.80
2018-05-12T15:27:21.378Z,34.30
2018-05-12T15:29:49.036Z,34.40
2018-05-12T15:32:16.883Z,35.50
2018-05-12T15:34:44.468Z,34.80
2018-05-12T15:37:12.038Z,35.30
2018-05-12T15:39:39.548Z,35.90
2018-05-12T15:42:07.044Z,36.20
2018-05-12T15:44:34.699Z,35.40
2018-05-12T15:47:02.155Z,34.70
2018-05-12T15:49:29.835Z,35.10
2018-05-12T15:51:57.479Z,35.40
2018-05-12T15:54:25.158Z,35.50
2018-05-12T15:56:52.603Z,35.30
2018-05-12T15:59:20.302Z,35.30
2018-05-12T16:01:47.750Z,35.50
2018-05-12T16:04:15.362Z,35.30
2018-05-12T16:06:43.024Z,35.90
2018-05-12T16:09:10.684Z,35.00
2018-05-12T16:11:38.225Z,35.50
2018-05-12T16:14:05.688Z,35.60
2018-05-12T16:16:33.130Z,35.50
2018-05-12T16:19:00.808Z,35.50
2018-05-12T16:21:28.256Z,34.40
2018-05-12T16:23:55.739Z,35.20
2018-05-12T16:26:24.089Z,34.80
2018-05-12T16:28:51.774Z,34.20
2018-05-12T16:31:19.990Z,34.20
2018-05-12T16:33:47.411Z,35.00
2018-05-12T16:36:16.446Z,34.90
2018-05-12T16:38:44.244Z,34.70
2018-05-12T16:41:11.920Z,34.40
2018-05-12T16:43:39.768Z,35.10
2018-05-12T16:46:09.802Z,35.10
2018-05-12T16:48:37.583Z,35.90
2018-05-12T16:51:05.232Z,35.10
2018-05-12T16:53:32.573Z,35.40
2018-05-12T16:56:01.392Z,34.80
2018-05-12T16:58:29.506Z,35.80
2018-05-12T17:00:57.030Z,36.10
2018-05-12T17:03:24.563Z,36.60
2018-05-12T17:05:53.155Z,36.70
2018-05-12T17:08:20.621Z,37.20
2018-05-12T17:10:49.247Z,36.20
2018-05-12T17:13:17.669Z,36.20
2018-05-12T17:15:45.865Z,36.70
2018-05-12T17:18:13.575Z,36.60
2018-05-12T17:20:41.691Z,36.40
2018-05-12T17:23:09.596Z,36.60
2018-05-12T17:25:37.168Z,36.70
2018-05-12T17:28:04.707Z,36.90
2018-05-12T17:30:33.086Z,36.70
2018-05-12T17:33:01.020Z,36.70
2018-05-12T17:35:28.634Z,37.10
2018-05-12T17:37:56.140Z,37.20
2018-05-12T17:40:23.773Z,37.00
2018-05-12T17:42:51.215Z,37.50
2018-05-12T17:45:18.744Z,37.60
2018-05-12T17:47:46.341Z,37.70
2018-05-12T17:50:13.776Z,37.60
2018-05-12T17:52:41.228Z,38.00
2018-05-12T17:55:08.692Z,38.10
2018-05-12T17:57:36.156Z,38.30
2018-05-12T18:00:03.603Z,38.40
2018-05-12T18:02:31.269Z,38.70
2018-05-12T18:04:58.809Z,39.00
2018-05-12T18:07:26.258Z,39.10
2018-05-12T18:09:53.792Z,39.30
2018-05-12T18:12:21.996Z,39.40
2018-05-12T18:14:49.458Z,39.40
2018-05-12T18:17:16.947Z,39.60
2018-05-12T18:19:44.566Z,39.50
2018-05-12T18:22:12.016Z,39.50
2018-05-12T18:24:39.456Z,39.40
2018-05-12T18:27:06.895Z,39.50
2018-05-12T18:29:34.347Z,39.50
2018-05-12T18:32:01.962Z,40.00
2018-05-12T18:34:29.416Z,39.80
2018-05-12T18:36:56.865Z,40.00
2018-05-12T18:39:24.355Z,40.30
2018-05-12T18:41:51.793Z,40.50
2018-05-12T18:44:19.435Z,40.50
2018-05-12T18:46:46.940Z,40.70
2018-05-12T18:49:14.373Z,40.80
2018-05-12T18:51:41.901Z,40.80
2018-05-12T18:54:09.356Z,41.30
2018-05-12T18:56:36.837Z,41.40
2018-05-12T18:59:05.244Z,41.40
2018-05-12T19:01:33.640Z,41.70
2018-05-12T19:04:01.655Z,41.90
2018-05-12T19:06:29.107Z,41.80
2018-05-12T19:08:56.559Z,41.50
2018-05-12T19:11:24.020Z,41.80
2018-05-12T19:13:51.464Z,42.00
2018-05-12T19:16:21.072Z,42.50
2018-05-12T19:18:49.614Z,42.90
2018-05-12T19:21:18.332Z,42.70
2018-05-12T19:23:45.950Z,42.90
2018-05-12T19:26:14.656Z,42.90
2018-05-12T19:28:43.084Z,43.10
2018-05-12T19:31:10.621Z,43.30
2018-05-12T19:33:38.221Z,43.50
2018-05-12T19:36:07.184Z,43.30
2018-05-12T19:38:34.766Z,43.50
2018-05-12T19:41:02.324Z,43.60
2018-05-12T19:43:29.941Z,43.90
2018-05-12T19:45:57.537Z,43.60
2018-05-12T19:48:25.059Z,43.50
2018-05-12T19:50:52.583Z,43.70
2018-05-12T19:53:25.086Z,44.30
2018-05-12T19:55:53.326Z,44.20
2018-05-12T19:58:21.428Z,44.40
2018-05-12T20:00:50.056Z,44.50
2018-05-12T20:03:18.565Z,44.50
2018-05-12T20:05:46.285Z,44.40
2018-05-12T20:08:13.832Z,44.50
2018-05-12T20:10:42.380Z,45.10
2018-05-12T20:13:09.866Z,45.20
2018-05-12T20:15:37.428Z,45.30
2018-05-12T20:18:04.916Z,45.10
2018-05-12T20:20:33.340Z,45.10
2018-05-12T20:23:00.929Z,45.70
2018-05-12T20:25:29.716Z,45.00
2018-05-12T20:27:58.610Z,45.30
2018-05-12T20:30:26.215Z,45.20
2018-05-12T20:32:54.011Z,45.30
2018-05-12T20:35:21.759Z,45.80
2018-05-12T20:37:49.449Z,45.00
2018-05-12T20:40:17.410Z,45.00
2018-05-12T20:42:45.309Z,45.30
2018-05-12T20:45:13.516Z,45.10
2018-05-12T20:47:42.845Z,45.40
2018-05-12T20:50:10.424Z,45.60
2018-05-12T20:52:37.955Z,45.70
2018-05-12T20:55:05.575Z,45.70
2018-05-12T20:57:33.109Z,45.70
2018-05-12T21:00:08.020Z,46.20
2018-05-12T21:02:35.490Z,46.10
2018-05-12T21:05:03.727Z,46.90
2018-05-12T21:07:31.537Z,46.60
2018-05-12T21:09:59.945Z,46.70
2018-05-12T21:12:27.641Z,47.00
2018-05-12T21:14:55.295Z,47.10
2018-05-12T21:17:22.940Z,47.40
2018-05-12T21:19:50.600Z,47.60
2018-05-12T21:22:18.219Z,47.80
2018-05-12T21:24:47.110Z,48.10
2018-05-12T21:27:14.763Z,48.30
2018-05-12T21:29:42.324Z,48.70
2018-05-12T21:32:09.881Z,48.80
2018-05-12T21:34:38.012Z,49.20
2018-05-12T21:37:07.184Z,49.60
2018-05-12T21:39:35.684Z,50.40
2018-05-12T21:42:03.177Z,50.40
2018-05-12T21:44:30.778Z,50.80
2018-05-12T21:46:59.609Z,51.10
2018-05-12T21:49:27.347Z,51.50
2018-05-12T21:51:54.971Z,52.00
2018-05-12T21:54:26.010Z,53.20
2018-05-12T21:56:55.131Z,53.40
2018-05-12T21:59:23.036Z,53.40
2018-05-12T22:01:51.097Z,53.90
2018-05-12T22:04:18.628Z,54.10
2018-05-12T22:06:47.315Z,54.50
2018-05-12T22:09:15.607Z,54.60
2018-05-12T22:11:44.028Z,55.10
2018-05-12T22:14:11.479Z,55.20
2018-05-12T22:16:39.513Z,55.30
2018-05-12T22:19:08.164Z,55.60
2018-05-12T22:21:35.882Z,55.90
2018-05-12T22:24:04.348Z,56.30
2018-05-12T22:26:31.839Z,56.60
2018-05-12T22:28:59.855Z,56.70
2018-05-12T22:31:28.934Z,57.10
2018-05-12T22:33:56.415Z,57.40
2018-05-12T22:36:23.872Z,57.50
2018-05-12T22:38:52.169Z,57.70
2018-05-12T22:41:20.921Z,58.30
2018-05-12T22:43:48.392Z,58.30
2018-05-12T22:46:16.813Z,58.50
2018-05-12T22:48:45.792Z,58.60
2018-05-12T22:51:14.888Z,58.70
2018-05-12T22:53:42.376Z,58.90
2018-05-12T22:56:12.058Z,59.00
2018-05-12T22:58:42.677Z,59.10
2018-05-12T23:01:10.764Z,59.30
2018-05-12T23:03:39.068Z,59.70
2018-05-12T23:06:06.744Z,59.70
2018-05-12T23:08:36.057Z,60.00
2018-05-12T23:11:05.097Z,60.30
2018-05-12T23:13:32.852Z,60.60
2018-05-12T23:16:00.512Z,60.70
2018-05-12T23:18:28.400Z,61.10
2018-05-12T23:20:55.896Z,61.20
2018-05-12T23:23:23.757Z,61.30
2018-05-12T23:25:51.211Z,61.60
2018-05-12T23:28:19.287Z,62.00
2018-05-12T23:30:46.749Z,62.20
2018-05-12T23:33:14.220Z,62.50
2018-05-12T23:35:41.793Z,62.80
2018-05-12T23:38:10.062Z,63.10
2018-05-12T23:40:37.611Z,63.10
2018-05-12T23:43:05.125Z,63.10
2018-05-12T23:45:32.597Z,63.40
2018-05-12T23:48:00.174Z,63.90
2018-05-12T23:50:27.763Z,64.20
2018-05-12T23:52:55.303Z,64.50
2018-05-12T23:55:23.698Z,64.60
2018-05-12T23:57:51.221Z,65.80
